createdAt,value
2019-03-31T00:01:40.248Z,81.42
2019-03-31T00:03:46.909Z,67.08
2019-03-31T00:05:53.572Z,83.52
2019-03-31T00:08:00.263Z,73.87
2019-03-31T00:10:08.834Z,82.42
2019-03-31T00:12:15.514Z,77.30
2019-03-31T00:14:22.210Z,72.97
2019-03-31T00:16:28.891Z,76.20
2019-03-31T00:18:35.596Z,74.55
2019-03-31T00:20:42.455Z,70.17
2019-03-31T00:22:49.122Z,69.53
2019-03-31T00:24:55.787Z,65.52
2019-03-31T00:27:02.523Z,64.77
2019-03-31T00:29:09.203Z,78.25
2019-03-31T00:31:22.126Z,69.32
2019-03-31T00:33:24.343Z,71.42
2019-03-31T00:35:31.086Z,64.65
2019-03-31T00:37:37.757Z,68.87
2019-03-31T00:39:44.453Z,64.58
2019-03-31T00:41:51.127Z,65.10
2019-03-31T00:43:57.784Z,69.45
2019-03-31T00:46:04.486Z,66.22
2019-03-31T00:48:11.164Z,67.03
2019-03-31T00:50:17.830Z,66.90
2019-03-31T00:52:24.526Z,68.37
2019-03-31T00:54:31.194Z,67.53
2019-03-31T00:56:37.927Z,69.95
2019-03-31T00:58:44.622Z,69.40
2019-03-31T01:00:53.067Z,65.87
2019-03-31T01:03:01.346Z,68.57
2019-03-31T01:05:08.130Z,66.60
2019-03-31T01:07:15.266Z,69.50
2019-03-31T01:09:26.721Z,69.07
2019-03-31T01:11:33.485Z,65.42
2019-03-31T01:13:40.515Z,69.07
2019-03-31T01:15:47.570Z,70.83
2019-03-31T01:17:55.063Z,76.95
2019-03-31T01:20:01.796Z,66.57
2019-03-31T01:22:09.060Z,67.12
2019-03-31T01:24:15.826Z,65.72
2019-03-31T01:26:23.363Z,65.92
2019-03-31T01:28:30.028Z,68.97
2019-03-31T01:30:36.912Z,61.58
2019-03-31T01:32:43.649Z,66.30
2019-03-31T01:34:50.453Z,69.05
2019-03-31T01:36:57.213Z,65.60
2019-03-31T01:39:05.757Z,66.97
2019-03-31T01:41:14.090Z,63.08
2019-03-31T01:43:20.986Z,71.97
2019-03-31T01:45:28.225Z,61.42
2019-03-31T01:47:34.895Z,62.17
2019-03-31T01:49:41.648Z,62.70
2019-03-31T01:51:49.198Z,74.47
2019-03-31T01:53:55.939Z,66.53
2019-03-31T01:56:02.629Z,63.90
2019-03-31T01:58:09.290Z,62.60
2019-03-31T02:00:27.596Z,65.37
2019-03-31T02:02:34.462Z,69.27
2019-03-31T02:04:41.197Z,61.98
2019-03-31T02:06:48.948Z,66.92
2019-03-31T02:08:55.634Z,66.82
2019-03-31T02:11:02.999Z,66.12
2019-03-31T02:13:10.870Z,68.22
2019-03-31T02:15:17.645Z,69.35
2019-03-31T02:17:24.309Z,67.27
2019-03-31T02:19:30.985Z,71.45
2019-03-31T02:21:37.671Z,68.72
2019-03-31T02:23:44.435Z,73.95
2019-03-31T02:25:51.100Z,75.78
2019-03-31T02:27:57.809Z,65.57
2019-03-31T02:30:06.260Z,71.47
2019-03-31T02:32:23.383Z,72.80
2019-03-31T02:34:22.475Z,72.08
2019-03-31T02:36:29.141Z,73.37
2019-03-31T02:38:35.947Z,72.55
2019-03-31T02:40:42.813Z,73.90
2019-03-31T02:42:49.488Z,68.85
2019-03-31T02:44:56.108Z,66.28
2019-03-31T02:47:02.859Z,78.35
2019-03-31T02:49:09.520Z,76.90
2019-03-31T02:51:16.191Z,73.70
2019-03-31T02:53:22.960Z,70.95
2019-03-31T02:55:29.660Z,69.97
2019-03-31T02:57:36.794Z,71.90
2019-03-31T02:59:44.413Z,72.78
2019-03-31T03:01:53.367Z,92.62
2019-03-31T03:04:02.136Z,78.67
2019-03-31T03:06:12.615Z,72.75
2019-03-31T03:08:20.979Z,73.60
2019-03-31T03:10:30.457Z,71.25
2019-03-31T03:12:40.115Z,76.30
2019-03-31T03:14:50.495Z,74.75
2019-03-31T03:16:57.148Z,72.70
2019-03-31T03:19:04.102Z,74.95
2019-03-31T03:21:10.865Z,73.47
2019-03-31T03:23:17.675Z,79.65
2019-03-31T03:25:24.660Z,72.00
2019-03-31T03:27:31.514Z,73.65
2019-03-31T03:29:38.307Z,71.47
2019-03-31T03:31:45.080Z,70.00
2019-03-31T03:33:51.860Z,74.82
2019-03-31T03:35:58.756Z,75.08
2019-03-31T03:38:05.531Z,74.22
2019-03-31T03:40:13.509Z,75.12
2019-03-31T03:42:20.190Z,70.60
2019-03-31T03:44:26.881Z,71.87
2019-03-31T03:46:33.923Z,74.35
2019-03-31T03:48:40.658Z,76.25
2019-03-31T03:50:47.426Z,79.58
2019-03-31T03:52:54.186Z,80.47
2019-03-31T03:55:00.922Z,72.40
2019-03-31T03:57:07.726Z,76.17
2019-03-31T03:59:14.464Z,81.60
2019-03-31T04:01:21.352Z,76.92
2019-03-31T04:03:30.486Z,76.07
2019-03-31T04:05:36.599Z,76.70
2019-03-31T04:07:43.376Z,75.25
2019-03-31T04:09:50.090Z,77.20
2019-03-31T04:11:56.760Z,77.50
2019-03-31T04:14:03.426Z,78.15
2019-03-31T04:16:10.310Z,77.85
2019-03-31T04:18:16.974Z,74.03
2019-03-31T04:20:23.622Z,76.67
2019-03-31T04:22:30.310Z,76.20
2019-03-31T04:24:37.052Z,72.87
2019-03-31T04:26:43.716Z,75.32
2019-03-31T04:28:50.390Z,72.53
2019-03-31T04:30:57.170Z,79.77
2019-03-31T04:33:03.908Z,81.08
2019-03-31T04:35:10.606Z,71.12
2019-03-31T04:37:17.276Z,78.72
2019-03-31T04:39:24.007Z,79.82
2019-03-31T04:41:30.692Z,77.82
2019-03-31T04:43:37.436Z,77.97
2019-03-31T04:45:44.095Z,87.40
2019-03-31T04:47:50.788Z,83.60
2019-03-31T04:49:57.447Z,82.67
2019-03-31T04:52:04.113Z,83.70
2019-03-31T04:54:10.816Z,81.47
2019-03-31T04:56:17.545Z,78.62
2019-03-31T04:58:24.203Z,75.42
2019-03-31T05:00:30.890Z,81.42
2019-03-31T05:02:37.715Z,74.35
2019-03-31T05:04:44.494Z,77.70
2019-03-31T05:06:51.181Z,75.37
2019-03-31T05:08:57.909Z,69.70
2019-03-31T05:11:05.541Z,75.40
2019-03-31T05:13:12.230Z,84.87
2019-03-31T05:15:18.971Z,74.32
2019-03-31T05:17:25.652Z,77.92
2019-03-31T05:19:32.400Z,73.97
2019-03-31T05:21:39.133Z,75.45
2019-03-31T05:23:45.803Z,77.85
2019-03-31T05:25:52.492Z,71.05
2019-03-31T05:27:59.330Z,69.77
2019-03-31T05:30:07.613Z,68.67
2019-03-31T05:32:14.406Z,81.42
2019-03-31T05:34:21.147Z,80.77
2019-03-31T05:36:27.815Z,77.35
2019-03-31T05:38:34.507Z,76.77
2019-03-31T05:40:42.174Z,70.78
2019-03-31T05:42:48.844Z,75.92
2019-03-31T05:44:55.607Z,70.37
2019-03-31T05:47:02.273Z,75.00
2019-03-31T05:49:08.945Z,73.75
2019-03-31T05:51:15.642Z,70.60
2019-03-31T05:53:22.387Z,73.05
2019-03-31T05:55:29.058Z,70.45
2019-03-31T05:57:35.792Z,70.03
2019-03-31T05:59:42.453Z,70.97
2019-03-31T06:01:49.196Z,75.03
2019-03-31T06:03:55.897Z,76.72
2019-03-31T06:06:02.624Z,76.97
2019-03-31T06:08:09.294Z,75.35
2019-03-31T06:10:16.065Z,79.67
2019-03-31T06:12:22.740Z,72.03
2019-03-31T06:14:29.490Z,72.70
2019-03-31T06:16:36.186Z,74.42
2019-03-31T06:18:42.934Z,68.80
2019-03-31T06:20:49.538Z,67.10
2019-03-31T06:22:56.235Z,69.90
2019-03-31T06:25:02.908Z,67.80
2019-03-31T06:27:09.572Z,65.85
2019-03-31T06:29:16.364Z,66.62
2019-03-31T06:31:23.104Z,69.97
2019-03-31T06:33:29.774Z,67.10
2019-03-31T06:35:36.474Z,66.33
2019-03-31T06:37:43.158Z,66.45
2019-03-31T06:39:50.926Z,66.17
2019-03-31T06:41:57.679Z,65.97
2019-03-31T06:44:04.442Z,65.70
2019-03-31T06:46:11.125Z,61.75
2019-03-31T06:48:17.840Z,63.83
2019-03-31T06:50:24.508Z,63.33
2019-03-31T06:52:31.180Z,65.75
2019-03-31T06:54:37.879Z,63.30
2019-03-31T06:56:47.097Z,67.03
2019-03-31T06:58:54.935Z,58.58
2019-03-31T07:01:01.926Z,67.70
2019-03-31T07:03:08.597Z,60.73
2019-03-31T07:05:15.264Z,60.25
2019-03-31T07:07:23.807Z,61.02
2019-03-31T07:09:30.319Z,67.95
2019-03-31T07:11:36.991Z,56.70
2019-03-31T07:13:43.689Z,58.60
2019-03-31T07:15:50.358Z,57.35
2019-03-31T07:17:57.020Z,57.62
2019-03-31T07:20:05.140Z,51.92
2019-03-31T07:22:11.809Z,52.48
2019-03-31T07:24:18.598Z,51.30
2019-03-31T07:26:25.286Z,51.25
2019-03-31T07:28:31.958Z,48.48
2019-03-31T07:30:38.642Z,46.45
2019-03-31T07:32:45.336Z,49.85
2019-03-31T07:34:52.012Z,47.58
2019-03-31T07:36:58.685Z,43.58
2019-03-31T07:39:07.317Z,44.55
2019-03-31T07:41:14.255Z,43.25
2019-03-31T07:43:22.166Z,46.63
2019-03-31T07:45:28.856Z,42.00
2019-03-31T07:47:35.609Z,41.40
2019-03-31T07:49:42.380Z,44.83
2019-03-31T07:51:49.072Z,43.98
2019-03-31T07:53:56.745Z,43.40
2019-03-31T07:56:03.549Z,47.15
2019-03-31T07:58:10.352Z,42.95
2019-03-31T08:00:20.614Z,43.02
2019-03-31T08:02:27.283Z,46.70
2019-03-31T08:04:34.043Z,42.83
2019-03-31T08:06:40.714Z,39.92
2019-03-31T08:08:47.446Z,42.05
2019-03-31T08:10:54.220Z,43.33
2019-03-31T08:13:00.969Z,41.70
2019-03-31T08:15:11.769Z,52.10
2019-03-31T08:17:18.526Z,43.58
2019-03-31T08:19:25.233Z,42.85
2019-03-31T08:21:31.901Z,40.55
2019-03-31T08:23:38.640Z,41.75
2019-03-31T08:25:45.304Z,35.95
2019-03-31T08:27:51.970Z,32.95
2019-03-31T08:30:00.787Z,36.38
2019-03-31T08:32:07.123Z,34.92
2019-03-31T08:34:13.866Z,32.85
2019-03-31T08:36:20.565Z,36.58
2019-03-31T08:38:27.239Z,32.70
2019-03-31T08:40:33.912Z,32.90
2019-03-31T08:42:40.610Z,32.95
2019-03-31T08:44:47.281Z,34.03
2019-03-31T08:46:54.016Z,31.00
2019-03-31T08:49:00.716Z,33.30
2019-03-31T08:51:07.451Z,35.58
2019-03-31T08:53:14.126Z,37.73
2019-03-31T08:55:20.825Z,37.67
2019-03-31T08:57:27.507Z,37.38
2019-03-31T08:59:34.174Z,35.45
2019-03-31T09:01:41.045Z,39.78
2019-03-31T09:03:47.712Z,31.48
2019-03-31T09:06:01.475Z,30.92
2019-03-31T09:08:02.788Z,33.05
2019-03-31T09:10:11.615Z,29.00
2019-03-31T09:14:24.044Z,24.65
2019-03-31T09:16:30.707Z,24.75
2019-03-31T09:18:37.380Z,31.25
2019-03-31T09:20:44.091Z,29.35
2019-03-31T09:22:50.841Z,32.90
2019-03-31T09:24:57.592Z,27.20
2019-03-31T09:27:04.295Z,26.68
2019-03-31T09:29:11.041Z,29.02
2019-03-31T09:31:17.702Z,30.48
2019-03-31T09:33:24.499Z,25.00
2019-03-31T09:35:31.166Z,22.13
2019-03-31T09:37:38.002Z,32.33
2019-03-31T09:39:44.702Z,28.10
2019-03-31T09:41:51.314Z,27.20
2019-03-31T09:43:57.983Z,23.15
2019-03-31T09:46:04.678Z,23.62
2019-03-31T09:48:11.435Z,26.52
2019-03-31T09:50:19.503Z,22.35
2019-03-31T09:52:26.192Z,21.42
2019-03-31T09:54:32.949Z,24.02
2019-03-31T09:56:39.614Z,27.52
2019-03-31T09:58:46.313Z,25.35
2019-03-31T10:00:54.207Z,25.15
2019-03-31T10:03:01.203Z,28.00
2019-03-31T10:05:09.641Z,29.90
2019-03-31T10:07:16.512Z,26.07
2019-03-31T10:09:23.189Z,26.12
2019-03-31T10:11:29.881Z,26.07
2019-03-31T10:13:36.671Z,30.92
2019-03-31T10:15:43.342Z,25.00
2019-03-31T10:17:50.132Z,34.83
2019-03-31T10:19:56.904Z,29.77
2019-03-31T10:22:03.586Z,26.12
2019-03-31T10:24:11.527Z,29.35
2019-03-31T10:26:31.000Z,24.65
2019-03-31T10:28:26.767Z,30.97
2019-03-31T10:30:41.719Z,26.85
2019-03-31T10:32:48.482Z,26.40
2019-03-31T10:34:55.161Z,27.17
2019-03-31T10:37:01.859Z,29.18
2019-03-31T10:39:09.826Z,30.70
2019-03-31T10:41:16.493Z,29.00
2019-03-31T10:43:47.581Z,31.12
2019-03-31T10:45:56.417Z,28.60
2019-03-31T10:48:03.153Z,32.23
2019-03-31T10:50:10.452Z,28.70
2019-03-31T10:52:17.118Z,27.77
2019-03-31T10:54:23.789Z,27.62
2019-03-31T10:56:31.078Z,22.27
2019-03-31T10:58:38.761Z,22.55
2019-03-31T11:00:45.418Z,22.35
2019-03-31T11:02:52.114Z,27.20
2019-03-31T11:04:58.849Z,27.05
2019-03-31T11:07:05.599Z,25.92
2019-03-31T11:09:12.377Z,28.60
2019-03-31T11:11:19.035Z,27.52
2019-03-31T11:13:25.821Z,24.52
2019-03-31T11:15:32.622Z,24.15
2019-03-31T11:17:39.395Z,25.32
2019-03-31T11:19:46.055Z,27.60
2019-03-31T11:21:57.132Z,23.62
2019-03-31T11:24:03.873Z,23.42
2019-03-31T11:26:10.539Z,24.12
2019-03-31T11:28:17.240Z,21.23
2019-03-31T11:30:25.091Z,23.52
2019-03-31T11:32:31.764Z,24.75
2019-03-31T11:34:38.473Z,25.95
2019-03-31T11:36:45.139Z,27.15
2019-03-31T11:38:52.809Z,23.40
2019-03-31T11:40:59.512Z,32.25
2019-03-31T11:43:06.189Z,23.57
2019-03-31T11:45:15.121Z,28.02
2019-03-31T11:47:21.916Z,25.55
2019-03-31T11:49:28.615Z,31.30
2019-03-31T11:51:35.346Z,28.32
2019-03-31T11:53:42.113Z,26.85
2019-03-31T11:55:48.784Z,22.22
2019-03-31T11:57:55.453Z,21.30
2019-03-31T12:00:02.218Z,21.25
2019-03-31T12:02:09.050Z,22.13
2019-03-31T12:04:15.717Z,31.30
2019-03-31T12:06:22.509Z,22.55
2019-03-31T12:08:29.170Z,23.83
2019-03-31T12:10:36.214Z,29.85
2019-03-31T12:12:42.976Z,26.33
2019-03-31T12:15:00.457Z,23.00
2019-03-31T12:16:58.156Z,22.87
2019-03-31T12:19:04.859Z,25.82
2019-03-31T12:21:11.601Z,28.50
2019-03-31T12:23:18.339Z,25.48
2019-03-31T12:25:25.031Z,26.37
2019-03-31T12:28:20.359Z,27.70
2019-03-31T12:30:31.039Z,33.85
2019-03-31T12:36:18.544Z,34.70
2019-03-31T12:38:25.217Z,37.03
2019-03-31T12:40:37.199Z,33.90
2019-03-31T12:42:45.946Z,35.33
2019-03-31T12:44:52.709Z,39.05
2019-03-31T12:54:39.609Z,42.17
2019-03-31T12:56:48.053Z,43.70
2019-03-31T12:58:54.719Z,39.92
2019-03-31T13:01:02.965Z,39.60
2019-03-31T13:03:09.644Z,41.05
2019-03-31T13:24:36.721Z,39.50
2019-03-31T13:30:22.172Z,37.78
2019-03-31T13:32:29.084Z,37.85
2019-03-31T13:54:19.743Z,36.35
2019-03-31T13:56:26.838Z,39.67
2019-03-31T13:58:35.999Z,39.88
2019-03-31T14:00:43.059Z,36.45
2019-03-31T14:09:25.814Z,36.10
2019-03-31T14:11:32.553Z,39.75
2019-03-31T14:13:39.331Z,39.50
2019-03-31T14:15:46.098Z,37.98
2019-03-31T14:17:52.770Z,38.85
2019-03-31T14:19:59.508Z,41.02
2019-03-31T14:22:06.275Z,34.58
2019-03-31T14:24:12.946Z,34.43
2019-03-31T14:26:19.613Z,43.95
2019-03-31T14:28:26.312Z,34.80
2019-03-31T14:30:33.101Z,31.80
2019-03-31T14:32:39.923Z,30.60
2019-03-31T14:34:46.620Z,35.75
2019-03-31T14:36:53.297Z,31.70
2019-03-31T14:38:59.976Z,28.07
2019-03-31T14:41:06.757Z,31.35
2019-03-31T14:43:13.419Z,26.68
2019-03-31T14:45:35.181Z,28.30
2019-03-31T14:47:41.942Z,31.00
2019-03-31T14:49:48.689Z,27.13
2019-03-31T14:51:55.358Z,25.08
2019-03-31T14:54:02.123Z,26.90
2019-03-31T14:56:08.866Z,26.37
2019-03-31T14:58:15.538Z,24.67
2019-03-31T15:00:23.833Z,21.93
2019-03-31T15:02:30.506Z,22.42
2019-03-31T15:04:37.237Z,20.57
2019-03-31T15:06:44.014Z,23.70
2019-03-31T15:08:54.516Z,20.12
2019-03-31T15:10:59.091Z,21.55
2019-03-31T15:13:06.070Z,18.85
2019-03-31T15:15:12.843Z,19.15
2019-03-31T15:17:20.714Z,16.17
2019-03-31T15:19:27.517Z,16.23
2019-03-31T15:21:34.189Z,18.77
2019-03-31T15:23:40.866Z,17.05
2019-03-31T15:25:49.040Z,16.23
2019-03-31T15:27:55.785Z,15.00
2019-03-31T15:30:02.951Z,21.23
2019-03-31T15:32:10.817Z,16.55
2019-03-31T15:34:17.575Z,20.20
2019-03-31T15:36:24.264Z,14.63
2019-03-31T15:38:31.015Z,18.32
2019-03-31T15:40:37.688Z,17.40
2019-03-31T15:42:44.384Z,15.23
2019-03-31T15:44:51.200Z,24.77
2019-03-31T15:46:57.906Z,14.33
2019-03-31T15:49:04.723Z,19.48
2019-03-31T15:51:11.512Z,20.12
2019-03-31T15:53:18.178Z,16.50
2019-03-31T15:55:24.926Z,15.53
2019-03-31T15:57:31.692Z,13.68
2019-03-31T15:59:38.450Z,11.57
2019-03-31T16:01:45.258Z,15.40
2019-03-31T16:03:52.111Z,16.48
2019-03-31T16:05:58.811Z,14.23
2019-03-31T16:08:05.540Z,11.55
2019-03-31T16:10:12.515Z,12.45
2019-03-31T16:12:21.256Z,15.23
2019-03-31T16:14:29.288Z,15.63
2019-03-31T16:16:35.991Z,11.60
2019-03-31T16:18:42.738Z,10.95
2019-03-31T16:20:51.280Z,11.20
2019-03-31T16:22:58.858Z,11.97
2019-03-31T16:25:12.011Z,10.93
2019-03-31T16:27:18.739Z,12.00
2019-03-31T16:29:25.503Z,12.03
2019-03-31T16:31:32.202Z,14.53
2019-03-31T16:33:40.741Z,17.92
2019-03-31T16:35:49.145Z,12.18
2019-03-31T16:37:55.863Z,14.20
2019-03-31T16:40:02.689Z,13.38
2019-03-31T16:42:10.010Z,14.30
2019-03-31T16:44:16.746Z,15.63
2019-03-31T16:46:23.499Z,15.93
2019-03-31T16:48:30.202Z,12.00
2019-03-31T16:50:36.937Z,14.68
2019-03-31T16:52:43.701Z,11.63
2019-03-31T16:54:51.650Z,14.23
2019-03-31T16:56:59.314Z,11.55
2019-03-31T16:59:06.063Z,10.80
2019-03-31T17:01:12.848Z,7.78
2019-03-31T17:03:19.525Z,7.92
2019-03-31T17:05:26.262Z,7.25
2019-03-31T17:07:33.074Z,8.60
2019-03-31T17:09:50.959Z,10.53
2019-03-31T17:11:48.175Z,9.33
2019-03-31T17:13:55.019Z,9.98
2019-03-31T17:16:01.874Z,8.95
2019-03-31T17:18:08.674Z,9.23
2019-03-31T17:20:15.576Z,8.00
2019-03-31T17:22:22.308Z,11.20
2019-03-31T17:24:29.005Z,12.70
2019-03-31T17:26:35.747Z,9.23
2019-03-31T17:28:42.532Z,10.95
2019-03-31T17:30:49.378Z,12.33
2019-03-31T17:32:56.086Z,10.43
2019-03-31T17:35:02.826Z,10.05
2019-03-31T17:37:09.642Z,9.28
2019-03-31T17:39:16.542Z,9.75
2019-03-31T17:41:23.330Z,12.47
2019-03-31T17:43:31.422Z,9.18
2019-03-31T17:45:38.316Z,12.15
2019-03-31T17:47:45.146Z,8.88
2019-03-31T17:49:51.843Z,10.45
2019-03-31T17:52:01.360Z,10.35
2019-03-31T17:54:08.332Z,8.80
2019-03-31T17:56:15.069Z,8.78
2019-03-31T17:58:23.224Z,8.25
2019-03-31T18:00:29.945Z,8.80
2019-03-31T18:02:36.692Z,10.15
2019-03-31T18:04:43.490Z,8.93
2019-03-31T18:06:53.014Z,8.25
2019-03-31T18:09:01.249Z,11.45
2019-03-31T18:11:09.565Z,13.95
2019-03-31T18:13:16.222Z,11.05
2019-03-31T18:15:22.970Z,12.55
2019-03-31T18:17:29.728Z,12.53
2019-03-31T18:19:36.467Z,11.57
2019-03-31T18:21:43.130Z,17.80
2019-03-31T18:23:49.893Z,15.85
2019-03-31T18:25:56.556Z,18.87
2019-03-31T18:28:03.290Z,19.05
2019-03-31T18:30:11.756Z,18.65
2019-03-31T18:32:19.688Z,18.07
2019-03-31T18:34:26.629Z,13.10
2019-03-31T18:36:36.828Z,14.90
2019-03-31T18:38:43.032Z,14.28
2019-03-31T18:40:49.772Z,11.63
2019-03-31T18:42:56.611Z,10.88
2019-03-31T18:45:03.469Z,10.32
2019-03-31T18:47:11.785Z,16.10
2019-03-31T18:49:18.554Z,11.60
2019-03-31T18:51:26.997Z,15.05
2019-03-31T18:53:41.052Z,12.28
2019-03-31T18:55:49.460Z,12.75
2019-03-31T18:58:05.523Z,13.13
2019-03-31T19:00:14.305Z,13.72
2019-03-31T19:02:40.743Z,10.45
2019-03-31T19:04:50.707Z,11.85
2019-03-31T19:07:10.151Z,10.38
2019-03-31T19:09:18.711Z,9.90
2019-03-31T19:11:25.234Z,11.45
2019-03-31T19:13:54.498Z,9.08
2019-03-31T19:16:05.860Z,11.33
2019-03-31T19:18:15.823Z,7.80
2019-03-31T19:20:25.144Z,8.85
2019-03-31T19:22:39.283Z,8.55
2019-03-31T19:24:47.658Z,10.43
2019-03-31T19:27:00.011Z,7.53
2019-03-31T19:29:26.217Z,7.92
2019-03-31T19:31:37.904Z,9.25
2019-03-31T19:33:50.546Z,8.08
2019-03-31T19:35:57.122Z,10.90
2019-03-31T19:38:14.544Z,11.75
2019-03-31T19:40:30.314Z,7.75
2019-03-31T19:42:38.760Z,10.00
2019-03-31T19:44:53.419Z,16.10
2019-03-31T19:47:01.973Z,10.63
2019-03-31T19:49:15.148Z,9.05
2019-03-31T19:51:27.723Z,10.85
2019-03-31T19:53:37.416Z,8.43
2019-03-31T19:55:44.428Z,11.35
2019-03-31T19:57:58.498Z,12.73
2019-03-31T20:00:11.023Z,17.07
2019-03-31T20:02:20.081Z,13.72
2019-03-31T20:04:38.372Z,15.55
2019-03-31T20:06:57.165Z,15.13
2019-03-31T20:09:22.637Z,18.12
2019-03-31T20:11:31.086Z,16.67
2019-03-31T20:13:37.578Z,18.82
2019-03-31T20:15:45.997Z,12.10
2019-03-31T20:18:09.523Z,20.75
2019-03-31T20:20:34.052Z,14.73
2019-03-31T20:22:40.669Z,13.58
2019-03-31T20:24:51.895Z,13.32
2019-03-31T20:27:03.179Z,15.15
2019-03-31T20:29:16.407Z,16.87
2019-03-31T20:31:34.301Z,15.55
2019-03-31T20:33:58.787Z,16.05
2019-03-31T20:36:19.245Z,19.82
2019-03-31T20:38:28.963Z,25.52
2019-03-31T20:40:46.386Z,16.30
2019-03-31T20:42:57.796Z,19.90
2019-03-31T20:45:09.829Z,23.95
2019-03-31T20:47:16.602Z,24.85
2019-03-31T20:49:23.470Z,22.93
2019-03-31T20:51:30.556Z,28.98
2019-03-31T20:53:37.591Z,28.32
2019-03-31T20:55:44.406Z,28.42
2019-03-31T20:57:52.240Z,32.42
2019-03-31T20:59:59.014Z,20.08
2019-03-31T21:02:05.840Z,27.45
2019-03-31T21:04:12.649Z,36.30
2019-03-31T21:06:19.507Z,29.10
2019-03-31T21:08:26.343Z,21.42
2019-03-31T21:10:34.311Z,15.10
2019-03-31T21:12:41.023Z,18.20
2019-03-31T21:14:47.892Z,19.55
2019-03-31T21:16:54.598Z,23.00
2019-03-31T21:19:01.311Z,21.87
2019-03-31T21:21:08.263Z,26.30
2019-03-31T21:23:14.992Z,21.07
2019-03-31T21:25:21.711Z,21.25
2019-03-31T21:27:28.509Z,22.87
2019-03-31T21:29:36.552Z,19.23
2019-03-31T21:31:43.220Z,18.82
2019-03-31T21:33:49.977Z,18.37
2019-03-31T21:35:56.708Z,21.82
2019-03-31T21:38:03.788Z,17.40
2019-03-31T21:40:10.615Z,18.90
2019-03-31T21:42:19.251Z,13.68
2019-03-31T21:44:26.594Z,20.65
2019-03-31T21:46:33.287Z,17.42
2019-03-31T21:48:39.972Z,17.57
2019-03-31T21:50:47.320Z,13.03
2019-03-31T21:52:54.330Z,13.65
2019-03-31T21:55:01.079Z,17.70
2019-03-31T21:57:07.740Z,12.50
2019-03-31T21:59:14.502Z,17.05
2019-03-31T22:01:21.242Z,17.75
2019-03-31T22:03:28.070Z,16.93
2019-03-31T22:05:34.788Z,15.70
2019-03-31T22:07:41.530Z,15.63
2019-03-31T22:09:48.328Z,11.22
2019-03-31T22:11:55.030Z,11.80
2019-03-31T22:14:01.830Z,15.30
2019-03-31T22:16:08.571Z,11.43
2019-03-31T22:18:15.462Z,11.88
2019-03-31T22:20:22.195Z,12.80
2019-03-31T22:22:28.930Z,14.83
2019-03-31T22:24:35.689Z,11.85
2019-03-31T22:26:42.355Z,16.82
2019-03-31T22:28:49.279Z,12.65
2019-03-31T22:30:56.120Z,14.05
2019-03-31T22:33:02.789Z,15.65
2019-03-31T22:35:09.455Z,20.70
2019-03-31T22:37:16.142Z,23.85
2019-03-31T22:39:22.813Z,21.25
2019-03-31T22:41:29.478Z,32.33
2019-03-31T22:43:36.175Z,32.33
2019-03-31T22:45:42.840Z,32.65
2019-03-31T22:47:49.890Z,34.25
2019-03-31T22:49:58.445Z,18.80
2019-03-31T22:52:05.179Z,18.20
2019-03-31T22:54:11.849Z,16.70
2019-03-31T22:56:18.781Z,15.00
2019-03-31T22:58:26.320Z,14.78
2019-03-31T23:00:33.046Z,20.12
2019-03-31T23:02:39.810Z,21.23
2019-03-31T23:04:46.550Z,15.00
2019-03-31T23:06:53.210Z,18.42
2019-03-31T23:08:59.981Z,18.92
2019-03-31T23:11:06.653Z,15.40
2019-03-31T23:13:13.321Z,17.42
2019-03-31T23:15:20.008Z,13.62
2019-03-31T23:17:26.668Z,13.60
2019-03-31T23:19:33.522Z,15.45
2019-03-31T23:21:40.198Z,10.55
2019-03-31T23:23:46.861Z,10.58
2019-03-31T23:25:53.527Z,11.33
2019-03-31T23:28:00.217Z,11.57
2019-03-31T23:30:10.859Z,11.10
2019-03-31T23:32:17.582Z,9.73
2019-03-31T23:34:24.334Z,8.83
2019-03-31T23:36:30.995Z,10.98
2019-03-31T23:38:37.666Z,13.03
2019-03-31T23:40:44.367Z,8.93
2019-03-31T23:42:51.223Z,8.13
2019-03-31T23:47:08.518Z,9.68
2019-03-31T23:49:15.177Z,8.25
2019-03-31T23:51:21.836Z,7.85
2019-03-31T23:53:28.633Z,10.28
2019-03-31T23:55:35.371Z,14.25
2019-03-31T23:57:45.134Z,9.23
2019-03-31T23:59:52.283Z,8.00
